San Felice — 9HA2811 — position and weather

sailwx.info

Track history (hours):
 
Tides and Currents Weather Stations Pressure Air Temp Water Temp Dewpoint Dewpoint Depression Visibility Wind Speed Wind Dir Waves Ship Positions

San Felice

Last reported at 2017-Nov-30 05:00 UTC. Time now 2018-Jan-23 06:02 UTC.
Position N 28°20' W 016°01'.
Warning: this ship's position is 54 days out of date.

Length 180 m; draft 10.1 m.

Type: Cargo ship. MMSI: 256054000.

Date/timePositionNaut miles runAvg speedWind from/ knotsBaromVisibWave heightAir tempDewpointWater temp
2017-Nov-30 05:00N 28°20' W 016°01'813.8
2017-Nov-30 04:27N 28°26' W 015°56'613.7
2017-Nov-30 04:01N 28°30' W 015°51'713.7
2017-Nov-30 03:30N 28°36' W 015°46'713.6
2017-Nov-30 03:01N 28°41' W 015°42'713.7
2017-Nov-30 02:31N 28°48' W 015°39'713.7
2017-Nov-30 02:00N 28°55' W 015°38'913.7
2017-Nov-30 01:19N 29°04' W 015°37'  
2017-Nov-25 11:15N 49°44' W 003°36'311.7
2017-Nov-25 11:00N 49°45' W 003°32'611.5
2017-Nov-25 10:30N 49°48' W 003°25'611.3
2017-Nov-25 10:00N 49°51' W 003°18'611.2
2017-Nov-25 09:30N 49°53' W 003°09'611.7
2017-Nov-25 09:00N 49°56' W 003°01'611.7
2017-Nov-25 08:30N 49°58' W 002°53'611.7
2017-Nov-25 08:00N 50°00' W 002°44'612.5
2017-Nov-25 07:30N 50°02' W 002°35'2713.9
2017-Nov-25 05:33N 50°09' W 001°54'115.1
2017-Nov-25 05:30N 50°10' W 001°53'714.9
2017-Nov-25 05:00N 50°12' W 001°42'714.8
2017-Nov-25 04:30N 50°13' W 001°31'714.6
2017-Nov-25 04:00N 50°15' W 001°20'3413.3
2017-Nov-25 01:26N 50°25' W 000°29'512.2
2017-Nov-25 01:00N 50°27' W 000°21'612.2
2017-Nov-25 00:30N 50°28' W 000°11'612.1
2017-Nov-25 00:00N 50°30' W 000°02'612.2
2017-Nov-24 23:30N 50°32' E 000°07'612.4
2017-Nov-24 23:00N 50°34' E 000°16'612.8
2017-Nov-24 22:30N 50°35' E 000°26'713.4
2017-Nov-24 22:00N 50°38' E 000°36'714.0
2017-Nov-24 21:31N 50°42' E 000°44'714.5
2017-Nov-24 21:01N 50°47' E 000°53'814.8
2017-Nov-24 20:30N 50°51' E 001°02'714.7
2017-Nov-24 20:01N 50°56' E 001°11'714.5
2017-Nov-24 19:31N 51°00' E 001°20'714.1
2017-Nov-24 19:01N 51°05' E 001°29'713.3
2017-Nov-24 18:31N 51°09' E 001°37'612.6
2017-Nov-24 18:01N 51°13' E 001°45'612.4
2017-Nov-24 17:30N 51°19' E 001°50'612.1
2017-Nov-24 17:01N 51°24' E 001°55'612.0
2017-Nov-24 16:30N 51°29' E 002°00'612.2
2017-Nov-24 16:00N 51°33' E 002°07'612.3
2017-Nov-24 15:30N 51°37' E 002°15'812.7
2017-Nov-24 14:54N 51°43' E 002°23'  
Track history (hours):
 
Tides and Currents Weather Stations Pressure Air Temp Water Temp Dewpoint Dewpoint Depression Visibility Wind Speed Wind Dir Waves Ship Positions

San Felice

Last reported at 2017-Nov-30 05:00 UTC. Time now 2018-Jan-23 06:02 UTC.
Position N 28°20' W 016°01'.
Warning: this ship's position is 54 days out of date.

Length 180 m; draft 10.1 m.

Type: Cargo ship. MMSI: 256054000.

Date/timePositionNaut miles runAvg speedWind from/ knotsBaromVisibWave heightAir tempDewpointWater temp
2017-Nov-30 05:00N 28°20' W 016°01'813.8
2017-Nov-30 04:27N 28°26' W 015°56'613.7
2017-Nov-30 04:01N 28°30' W 015°51'713.7
2017-Nov-30 03:30N 28°36' W 015°46'713.6
2017-Nov-30 03:01N 28°41' W 015°42'713.7
2017-Nov-30 02:31N 28°48' W 015°39'713.7
2017-Nov-30 02:00N 28°55' W 015°38'913.7
2017-Nov-30 01:19N 29°04' W 015°37'  
2017-Nov-25 11:15N 49°44' W 003°36'311.7
2017-Nov-25 11:00N 49°45' W 003°32'611.5
2017-Nov-25 10:30N 49°48' W 003°25'611.3
2017-Nov-25 10:00N 49°51' W 003°18'611.2
2017-Nov-25 09:30N 49°53' W 003°09'611.7
2017-Nov-25 09:00N 49°56' W 003°01'611.7
2017-Nov-25 08:30N 49°58' W 002°53'611.7
2017-Nov-25 08:00N 50°00' W 002°44'612.5
2017-Nov-25 07:30N 50°02' W 002°35'2713.9
2017-Nov-25 05:33N 50°09' W 001°54'115.1
2017-Nov-25 05:30N 50°10' W 001°53'714.9
2017-Nov-25 05:00N 50°12' W 001°42'714.8
2017-Nov-25 04:30N 50°13' W 001°31'714.6
2017-Nov-25 04:00N 50°15' W 001°20'3413.3
2017-Nov-25 01:26N 50°25' W 000°29'512.2
2017-Nov-25 01:00N 50°27' W 000°21'612.2
2017-Nov-25 00:30N 50°28' W 000°11'612.1
2017-Nov-25 00:00N 50°30' W 000°02'612.2
2017-Nov-24 23:30N 50°32' E 000°07'612.4
2017-Nov-24 23:00N 50°34' E 000°16'612.8
2017-Nov-24 22:30N 50°35' E 000°26'713.4
2017-Nov-24 22:00N 50°38' E 000°36'714.0
2017-Nov-24 21:31N 50°42' E 000°44'714.5
2017-Nov-24 21:01N 50°47' E 000°53'814.8
2017-Nov-24 20:30N 50°51' E 001°02'714.7
2017-Nov-24 20:01N 50°56' E 001°11'714.5
2017-Nov-24 19:31N 51°00' E 001°20'714.1
2017-Nov-24 19:01N 51°05' E 001°29'713.3
2017-Nov-24 18:31N 51°09' E 001°37'612.6
2017-Nov-24 18:01N 51°13' E 001°45'612.4
2017-Nov-24 17:30N 51°19' E 001°50'612.1
2017-Nov-24 17:01N 51°24' E 001°55'612.0
2017-Nov-24 16:30N 51°29' E 002°00'612.2
2017-Nov-24 16:00N 51°33' E 002°07'612.3
2017-Nov-24 15:30N 51°37' E 002°15'812.7
2017-Nov-24 14:54N 51°43' E 002°23'  

Dump ship's entire track history